Time;durP1;ratioP1;P1;durP2;ratioP2;P2;SDS_P1;SDS_P2;PMS_P1;PMS_P2;Temp;Humidity;BMP_temperature;BMP_pressure;BME280_temperature;BME280_humidity;BME280_pressure;Samples;Min_cycle;Max_cycle;Signal;HPM_P1;HPM_P2
2024/01/09 00:00:58;;;;;;;;;;;;;;;19.84;42.40;103249.66;2060856;28;6145;-66
2024/01/09 00:02:00;;;;;;;;;;;;;;;19.84;42.44;103254.66;2060998;28;2170;-66
2024/01/09 00:03:01;;;;;;;;;;;;;;;19.80;42.82;103243.56;2059497;28;1821;-66
2024/01/09 00:04:04;;;;;;;;;;;;;;;19.81;42.35;103250.84;2059245;28;2011;-65
2024/01/09 00:05:06;;;;;;;;;;;;;;;19.81;42.55;103250.06;2059614;28;2076;-66
2024/01/09 00:06:12;;;;;;;;;;;;;;;19.81;42.57;103255.81;2060042;28;2198;-66
2024/01/09 00:07:14;;;;;;;;;;;;;;;19.79;42.66;103249.88;2058691;28;1747;-66
2024/01/09 00:08:15;;;;;;;;;;;;;;;19.79;42.59;103249.88;2060795;28;1953;-65
2024/01/09 00:09:17;;;;;;;;;;;;;;;19.79;42.49;103258.50;2061811;28;1603;-66
2024/01/09 00:10:18;;;;;;;;;;;;;;;19.78;42.61;103254.13;2060101;28;1998;-66
2024/01/09 00:11:20;;;;;;;;;;;;;;;19.79;42.56;103264.25;2060607;28;1587;-66
2024/01/09 00:12:21;;;;;;;;;;;;;;;19.78;42.58;103251.25;2061199;28;1750;-66
2024/01/09 00:13:23;;;;;;;;;;;;;;;19.77;42.48;103261.19;2062940;28;1643;-66
2024/01/09 00:14:24;;;;;;;;;;;;;;;19.77;42.43;103261.19;2056622;28;1913;-66
2024/01/09 00:15:26;;;;;;;;;;;;;;;19.77;42.33;103258.31;2055949;28;2074;-66
2024/01/09 00:16:27;;;;;;;;;;;;;;;19.75;42.68;103258.94;2060543;28;1556;-66
2024/01/09 00:17:29;;;;;;;;;;;;;;;19.76;42.55;103260.44;2063677;28;1934;-66
2024/01/09 00:18:30;;;;;;;;;;;;;;;19.75;42.62;103256.06;2061082;28;1944;-66
2024/01/09 00:19:33;;;;;;;;;;;;;;;19.76;42.50;103266.19;2061399;28;1620;-67
2024/01/09 00:20:35;;;;;;;;;;;;;;;19.76;42.63;103260.44;2062008;28;1695;-66
2024/01/09 00:21:37;;;;;;;;;;;;;;;19.77;42.47;103261.19;2063920;28;1859;-66
2024/01/09 00:22:39;;;;;;;;;;;;;;;19.76;42.47;103253.94;2060478;28;2016;-66
2024/01/09 00:23:40;;;;;;;;;;;;;;;19.77;42.25;103255.44;2060650;28;1976;-66
2024/01/09 00:24:42;;;;;;;;;;;;;;;19.77;42.42;103258.31;2059695;28;2069;-66
2024/01/09 00:25:43;;;;;;;;;;;;;;;19.77;42.49;103258.31;2059920;28;2035;-66
2024/01/09 00:26:44;;;;;;;;;;;;;;;19.77;42.41;103261.19;2060774;28;1947;-66
2024/01/09 00:27:46;;;;;;;;;;;;;;;19.78;42.47;103262.75;2060965;28;1670;-66
2024/01/09 00:28:47;;;;;;;;;;;;;;;19.77;42.46;103259.13;2060308;28;2144;-66
2024/01/09 00:29:49;;;;;;;;;;;;;;;19.77;42.41;103261.19;2060773;28;1873;-66
2024/01/09 00:30:50;;;;;;;;;;;;;;;19.77;42.17;103261.97;2061110;28;6043;-66
2024/01/09 00:31:52;;;;;;;;;;;;;;;19.78;42.26;103265.63;2061015;28;1580;-66
2024/01/09 00:32:53;;;;;;;;;;;;;;;19.79;42.25;103261.38;2060443;28;2331;-66
2024/01/09 00:33:55;;;;;;;;;;;;;;;19.79;42.02;103267.91;2058954;28;1890;-66
2024/01/09 00:34:57;;;;;;;;;;;;;;;19.79;42.21;103270.00;2059337;28;1584;-66
2024/01/09 00:35:58;;;;;;;;;;;;;;;19.78;42.41;103260.63;2059876;28;2039;-66
2024/01/09 00:37:00;;;;;;;;;;;;;;;19.79;42.56;103258.50;2061231;28;1914;-66
2024/01/09 00:38:01;;;;;;;;;;;;;;;19.81;42.23;103267.31;2062460;28;1595;-67
2024/01/09 00:39:02;;;;;;;;;;;;;;;19.80;42.13;103266.56;2062287;28;1540;-68
2024/01/09 00:40:04;;;;;;;;;;;;;;;19.81;42.13;103262.34;2066844;28;1583;-68
2024/01/09 00:41:05;;;;;;;;;;;;;;;19.79;42.36;103258.50;2062239;28;1619;-65
2024/01/09 00:42:07;;;;;;;;;;;;;;;19.80;42.27;103268.69;2060125;28;2096;-67
2024/01/09 00:43:09;;;;;;;;;;;;;;;19.78;42.05;103263.50;2062363;28;2142;-67
2024/01/09 00:44:10;;;;;;;;;;;;;;;19.80;41.99;103271.53;2059213;28;1916;-67
2024/01/09 00:45:12;;;;;;;;;;;;;;;19.79;42.12;103265.03;2049345;28;1989;-68
2024/01/09 00:46:13;;;;;;;;;;;;;;;19.78;42.28;103263.50;2051663;28;2097;-67
2024/01/09 00:47:14;;;;;;;;;;;;;;;19.80;42.21;103271.53;2061357;28;1678;-67
2024/01/09 00:48:16;;;;;;;;;;;;;;;19.79;42.10;103270.00;2061769;28;1690;-67
2024/01/09 00:49:17;;;;;;;;;;;;;;;19.80;42.05;103271.53;2058098;28;1920;-68
2024/01/09 00:50:19;;;;;;;;;;;;;;;19.78;42.31;103263.50;2059641;28;2461;-67
2024/01/09 00:51:20;;;;;;;;;;;;;;;19.79;42.01;103272.88;2062562;28;2130;-67
2024/01/09 00:52:22;;;;;;;;;;;;;;;19.78;42.16;103266.38;2061103;28;1686;-67
2024/01/09 00:53:23;;;;;;;;;;;;;;;19.77;42.39;103261.19;2057846;28;2007;-67
2024/01/09 00:54:25;;;;;;;;;;;;;;;19.76;42.33;103262.56;2058262;28;1707;-67
2024/01/09 00:55:26;;;;;;;;;;;;;;;19.75;42.22;103263.94;2060074;28;1568;-67
2024/01/09 00:56:28;;;;;;;;;;;;;;;19.74;42.42;103276.75;2060262;28;1871;-68
2024/01/09 00:57:29;;;;;;;;;;;;;;;19.74;42.28;103273.88;2059646;28;2077;-67
2024/01/09 00:58:31;;;;;;;;;;;;;;;19.73;42.28;103266.63;2060717;28;1702;-67
2024/01/09 00:59:32;;;;;;;;;;;;;;;19.73;42.30;103266.63;2059527;28;1631;-68
2024/01/09 01:00:33;;;;;;;;;;;;;;;19.73;42.11;103273.13;2060542;28;6088;-67
2024/01/09 01:01:35;;;;;;;;;;;;;;;19.74;42.24;103268.13;2061130;28;1667;-67
2024/01/09 01:02:37;;;;;;;;;;;;;;;19.73;42.06;103266.63;2061066;28;1536;-68
2024/01/09 01:03:38;;;;;;;;;;;;;;;19.72;42.26;103254.34;2061621;28;2081;-67
2024/01/09 01:04:40;;;;;;;;;;;;;;;19.72;42.09;103276.56;2059882;28;1568;-67
2024/01/09 01:05:41;;;;;;;;;;;;;;;19.73;42.12;103263.75;2057859;28;2055;-68
2024/01/09 01:06:44;;;;;;;;;;;;;;;19.74;42.20;103265.25;2057718;28;2063;-67
2024/01/09 01:07:45;;;;;;;;;;;;;;;19.73;42.36;103263.75;2060891;28;2086;-67
2024/01/09 01:08:47;;;;;;;;;;;;;;;19.74;42.33;103262.38;2060245;28;1619;-67
2024/01/09 01:09:48;;;;;;;;;;;;;;;19.74;42.08;103262.38;2060152;28;1624;-68
2024/01/09 01:10:49;;;;;;;;;;;;;;;19.74;42.08;103262.38;2057386;28;1587;-67
2024/01/09 01:11:51;;;;;;;;;;;;;;;19.75;42.02;103261.81;2061705;28;1607;-68
2024/01/09 01:12:53;;;;;;;;;;;;;;;19.76;42.09;103259.69;2060632;28;1666;-67
2024/01/09 01:13:54;;;;;;;;;;;;;;;19.76;41.91;103259.69;2058055;28;2064;-67
2024/01/09 01:14:55;;;;;;;;;;;;;;;19.77;42.06;103264.06;2064959;28;1671;-67
2024/01/09 01:15:57;;;;;;;;;;;;;;;19.76;41.89;103259.69;2056806;28;1892;-67
2024/01/09 01:16:58;;;;;;;;;;;;;;;19.76;41.93;103257.56;2063479;28;2115;-67
2024/01/09 01:18:00;;;;;;;;;;;;;;;19.75;42.06;103269.69;2060994;28;1942;-67
2024/01/09 01:19:01;;;;;;;;;;;;;;;19.75;41.96;103270.44;2056979;28;1940;-67
2024/01/09 01:20:03;;;;;;;;;;;;;;;19.75;42.16;103261.81;2061933;28;1796;-67
2024/01/09 01:21:04;;;;;;;;;;;;;;;19.77;41.99;103261.19;2060430;28;1944;-67
2024/01/09 01:22:06;;;;;;;;;;;;;;;19.76;42.14;103259.69;2059822;28;1663;-67
2024/01/09 01:23:07;;;;;;;;;;;;;;;19.77;42.08;103266.94;2060753;28;1758;-67
2024/01/09 01:24:09;;;;;;;;;;;;;;;19.77;42.25;103258.31;2059526;28;2096;-67
2024/01/09 01:25:10;;;;;;;;;;;;;;;19.77;42.13;103255.44;2060572;28;1896;-67
2024/01/09 01:26:12;;;;;;;;;;;;;;;19.76;42.14;103259.69;2057317;28;2108;-68
2024/01/09 01:27:13;;;;;;;;;;;;;;;19.76;42.11;103253.94;2060468;28;2110;-67
2024/01/09 01:28:15;;;;;;;;;;;;;;;19.76;41.90;103257.56;2059968;28;2054;-67
2024/01/09 01:29:16;;;;;;;;;;;;;;;19.78;41.77;103257.00;2059037;28;1773;-67
2024/01/09 01:30:18;;;;;;;;;;;;;;;19.78;41.86;103252.00;2061427;28;6025;-67
2024/01/09 01:31:20;;;;;;;;;;;;;;;19.78;41.93;103257.00;2055909;28;1958;-67
2024/01/09 01:32:21;;;;;;;;;;;;;;;19.76;42.10;103248.94;2052650;28;1946;-67
2024/01/09 01:33:23;;;;;;;;;;;;;;;19.77;41.85;103261.19;2051700;28;2067;-67
2024/01/09 01:34:25;;;;;;;;;;;;;;;19.76;41.97;103248.19;2061282;28;1596;-68
2024/01/09 01:35:26;;;;;;;;;;;;;;;19.75;42.04;103261.81;2058036;28;1967;-67
2024/01/09 01:36:28;;;;;;;;;;;;;;;19.77;41.73;103261.19;2058570;28;2177;-67
2024/01/09 01:37:29;;;;;;;;;;;;;;;19.76;41.83;103259.69;2057236;28;2078;-67
2024/01/09 01:38:31;;;;;;;;;;;;;;;19.76;41.80;103259.69;2061995;28;2029;-67
2024/01/09 01:39:32;;;;;;;;;;;;;;;19.75;41.91;103258.94;2057686;28;1646;-68
2024/01/09 01:40:33;;;;;;;;;;;;;;;19.74;41.99;103262.38;2058927;28;1897;-67
2024/01/09 01:41:35;;;;;;;;;;;;;;;19.73;41.93;103260.88;2059776;28;2041;-67
2024/01/09 01:42:37;;;;;;;;;;;;;;;19.72;41.97;103256.44;2063442;28;1659;-67
2024/01/09 01:43:38;;;;;;;;;;;;;;;19.71;41.89;103257.81;2061542;28;2052;-67
2024/01/09 01:44:39;;;;;;;;;;;;;;;19.69;42.08;103267.00;2060802;28;2083;-67
2024/01/09 01:45:41;;;;;;;;;;;;;;;19.70;42.09;103264.91;2058705;28;1667;-67
2024/01/09 01:46:43;;;;;;;;;;;;;;;19.67;42.06;103261.81;2059094;28;2036;-67
2024/01/09 01:47:44;;;;;;;;;;;;;;;19.69;41.95;103249.00;2067031;28;1615;-67
2024/01/09 01:48:46;;;;;;;;;;;;;;;19.68;41.96;103256.84;2056827;28;1792;-67
2024/01/09 01:49:47;;;;;;;;;;;;;;;19.67;42.15;103263.94;2056418;28;1720;-67
2024/01/09 01:50:49;;;;;;;;;;;;;;;19.66;42.09;103263.19;2057548;28;1947;-67
2024/01/09 01:51:50;;;;;;;;;;;;;;;19.68;42.08;103265.47;2061453;28;1571;-67
2024/01/09 01:52:52;;;;;;;;;;;;;;;19.70;41.93;103262.03;2060432;28;2081;-67
2024/01/09 01:53:53;;;;;;;;;;;;;;;19.66;42.02;103268.94;2060271;28;2129;-67
2024/01/09 01:54:55;;;;;;;;;;;;;;;19.68;41.98;103265.47;2062130;28;2042;-67
2024/01/09 01:55:56;;;;;;;;;;;;;;;19.68;41.87;103256.84;2055809;28;1685;-67
2024/01/09 01:56:58;;;;;;;;;;;;;;;19.70;41.92;103262.03;2053502;28;2220;-67
2024/01/09 01:57:59;;;;;;;;;;;;;;;19.69;41.75;103260.50;2058879;28;2138;-67
2024/01/09 01:59:00;;;;;;;;;;;;;;;19.69;42.02;103260.50;2061482;28;2058;-67
2024/01/09 02:00:02;;;;;;;;;;;;;;;19.67;41.79;103255.31;2061540;28;2306;-67
2024/01/09 02:01:04;;;;;;;;;;;;;;;19.67;41.84;103258.94;2053986;28;6953;-67
2024/01/09 02:02:05;;;;;;;;;;;;;;;19.69;41.94;103261.25;2053661;28;2114;-67
2024/01/09 02:03:07;;;;;;;;;;;;;;;19.70;41.81;103259.16;2061320;28;2101;-67
2024/01/09 02:04:09;;;;;;;;;;;;;;;19.70;41.91;103262.03;2056238;28;1662;-68
2024/01/09 02:05:10;;;;;;;;;;;;;;;19.69;41.99;103254.75;2063028;28;1733;-67
2024/01/09 02:06:12;;;;;;;;;;;;;;;19.70;41.93;103257.06;2059866;28;2072;-67
2024/01/09 02:07:13;;;;;;;;;;;;;;;19.71;41.67;103260.69;2058051;28;2204;-67
2024/01/09 02:08:15;;;;;;;;;;;;;;;19.70;42.01;103259.16;2059645;28;1979;-67
2024/01/09 02:09:16;;;;;;;;;;;;;;;19.70;41.81;103257.06;2057342;28;1912;-67
2024/01/09 02:10:17;;;;;;;;;;;;;;;19.71;41.82;103260.69;2059280;28;1857;-67
2024/01/09 02:11:19;;;;;;;;;;;;;;;19.73;41.75;103249.38;2063294;28;2102;-67
2024/01/09 02:12:20;;;;;;;;;;;;;;;19.73;41.60;103266.63;2060602;28;1674;-67
2024/01/09 02:13:22;;;;;;;;;;;;;;;19.73;41.65;103260.88;2062055;28;1679;-67
2024/01/09 02:14:23;;;;;;;;;;;;;;;19.74;41.55;103262.38;2059306;28;1681;-67
2024/01/09 02:15:25;;;;;;;;;;;;;;;19.72;41.97;103265.06;2062245;28;1747;-67
2024/01/09 02:16:26;;;;;;;;;;;;;;;19.73;41.69;103272.38;2064442;28;1682;-67
2024/01/09 02:17:27;;;;;;;;;;;;;;;19.73;41.75;103266.63;2061104;28;2031;-67
2024/01/09 02:18:32;;;;;;;;;;;;;;;19.73;41.61;103269.50;2061070;28;2132;-67
2024/01/09 02:19:34;;;;;;;;;;;;;;;19.74;41.64;103262.38;2063596;28;1591;-67
2024/01/09 02:20:35;;;;;;;;;;;;;;;19.74;41.65;103259.50;2062430;28;2118;-67
2024/01/09 02:21:37;;;;;;;;;;;;;;;19.73;41.64;103261.63;2063685;28;2425;-67
2024/01/09 02:22:38;;;;;;;;;;;;;;;19.71;41.84;103257.81;2062277;28;2138;-68
2024/01/09 02:23:40;;;;;;;;;;;;;;;19.73;41.60;103255.88;2062916;28;1877;-67
2024/01/09 02:24:41;;;;;;;;;;;;;;;19.74;41.71;103262.38;2060997;28;1873;-67
2024/01/09 02:25:43;;;;;;;;;;;;;;;19.74;41.66;103256.63;2061659;28;1988;-67
2024/01/09 02:26:46;;;;;;;;;;;;;;;19.73;41.88;103258.75;2057795;28;2077;-67
2024/01/09 02:28:11;;;;;;;;;;;;;;;19.74;41.76;103254.50;2059550;28;2151;-67
2024/01/09 02:29:12;;;;;;;;;;;;;;;19.74;41.87;103262.38;2059934;28;1685;-67
2024/01/09 02:30:13;;;;;;;;;;;;;;;19.74;41.83;103263.13;2060607;28;6011;-67
2024/01/09 02:31:15;;;;;;;;;;;;;;;19.75;41.60;103263.94;2057549;28;2105;-67
2024/01/09 02:32:16;;;;;;;;;;;;;;;19.75;41.65;103261.06;2047451;28;1693;-67
2024/01/09 02:33:18;;;;;;;;;;;;;;;19.76;41.70;103262.56;2050431;28;1912;-67
2024/01/09 02:34:20;;;;;;;;;;;;;;;19.75;41.81;103263.94;2064350;28;1746;-67
2024/01/09 02:35:21;;;;;;;;;;;;;;;19.75;41.83;103263.94;2059232;28;1757;-67
2024/01/09 02:36:23;;;;;;;;;;;;;;;19.73;41.67;103270.25;2060446;28;2079;-67
2024/01/09 02:37:24;;;;;;;;;;;;;;;19.75;41.57;103266.81;2061733;28;2050;-67
2024/01/09 02:38:25;;;;;;;;;;;;;;;19.74;41.56;103268.88;2059221;28;1912;-67
2024/01/09 02:39:28;;;;;;;;;;;;;;;19.74;41.63;103268.88;2062191;28;1760;-67
2024/01/09 02:40:30;;;;;;;;;;;;;;;19.74;41.79;103273.88;2062584;28;1808;-68
2024/01/09 02:41:35;;;;;;;;;;;;;;;19.74;41.62;103282.50;2060489;28;1937;-67
2024/01/09 02:42:37;;;;;;;;;;;;;;;19.72;41.58;103268.72;2060826;28;1542;-68
2024/01/09 02:43:38;;;;;;;;;;;;;;;19.72;41.71;103265.06;2062161;28;1903;-67
2024/01/09 02:44:40;;;;;;;;;;;;;;;19.70;41.81;103267.78;2062756;28;2064;-67
2024/01/09 02:45:41;;;;;;;;;;;;;;;19.69;41.89;103266.25;2062429;28;1644;-67
2024/01/09 02:46:42;;;;;;;;;;;;;;;19.69;41.72;103266.25;2061476;28;2134;-67
2024/01/09 02:47:44;;;;;;;;;;;;;;;19.69;41.79;103263.38;2059812;28;2594;-67
2024/01/09 02:48:45;;;;;;;;;;;;;;;19.69;41.70;103277.75;2059957;28;1817;-67
2024/01/09 02:49:47;;;;;;;;;;;;;;;19.67;41.82;103266.81;2060784;28;1683;-67
2024/01/09 02:50:48;;;;;;;;;;;;;;;19.66;41.82;103265.28;2057730;28;1988;-68
2024/01/09 02:51:50;;;;;;;;;;;;;;;19.66;41.86;103263.19;2061123;28;1844;-67
2024/01/09 02:52:52;;;;;;;;;;;;;;;19.66;41.74;103268.94;2059326;28;1894;-67
2024/01/09 02:53:53;;;;;;;;;;;;;;;19.66;41.74;103273.91;2066092;28;1682;-67
2024/01/09 02:54:54;;;;;;;;;;;;;;;19.65;41.64;103273.16;2061184;28;2086;-67
2024/01/09 02:55:56;;;;;;;;;;;;;;;19.66;41.75;103268.16;2061729;28;1965;-67
2024/01/09 02:56:57;;;;;;;;;;;;;;;19.66;41.63;103271.78;2061324;28;2486;-67
2024/01/09 02:57:59;;;;;;;;;;;;;;;19.66;41.52;103274.66;2062871;28;1884;-67
2024/01/09 02:59:00;;;;;;;;;;;;;;;19.64;41.64;103270.88;2063442;28;1999;-67
2024/01/09 03:00:02;;;;;;;;;;;;;;;19.66;41.68;103268.94;2061289;28;1650;-67
2024/01/09 03:01:03;;;;;;;;;;;;;;;19.68;41.64;103274.09;2063566;28;6839;-67
2024/01/09 03:02:05;;;;;;;;;;;;;;;19.67;41.63;103276.19;2063365;28;1782;-67
2024/01/09 03:03:06;;;;;;;;;;;;;;;19.68;41.50;103276.97;2060507;28;1607;-67
2024/01/09 03:04:08;;;;;;;;;;;;;;;19.69;41.57;103277.75;2063333;28;1608;-67
2024/01/09 03:05:09;;;;;;;;;;;;;;;19.67;41.56;103270.44;2058083;28;2030;-67
2024/01/09 03:06:11;;;;;;;;;;;;;;;19.69;41.63;103277.75;2060028;28;2063;-67
2024/01/09 03:07:13;;;;;;;;;;;;;;;19.67;41.70;103272.56;2061418;28;2014;-67
2024/01/09 03:08:14;;;;;;;;;;;;;;;19.68;41.67;103274.09;2060444;28;1996;-68
2024/01/09 03:09:16;;;;;;;;;;;;;;;19.69;41.65;103272.00;2062770;28;1652;-67
2024/01/09 03:10:18;;;;;;;;;;;;;;;19.70;41.48;103273.53;2061500;28;1862;-67
2024/01/09 03:11:19;;;;;;;;;;;;;;;19.69;41.54;103272.75;2060788;28;1865;-67
2024/01/09 03:12:21;;;;;;;;;;;;;;;19.67;41.50;103276.19;2065076;28;1766;-67
2024/01/09 03:13:22;;;;;;;;;;;;;;;19.71;41.45;103275.06;2062639;28;1811;-67
2024/01/09 03:14:24;;;;;;;;;;;;;;;19.70;41.44;103276.41;2058601;28;1691;-67
2024/01/09 03:15:25;;;;;;;;;;;;;;;19.71;41.38;103275.06;2060404;28;2151;-67
2024/01/09 03:16:26;;;;;;;;;;;;;;;19.72;41.43;103280.22;2059696;28;2219;-67
2024/01/09 03:17:28;;;;;;;;;;;;;;;19.70;41.55;103271.44;2054489;28;2139;-67
2024/01/09 03:18:29;;;;;;;;;;;;;;;19.70;41.47;103273.53;2051047;28;1810;-68
2024/01/09 03:19:31;;;;;;;;;;;;;;;19.69;41.61;103277.75;2062040;28;1926;-67
2024/01/09 03:20:33;;;;;;;;;;;;;;;19.70;41.52;103280.06;2063733;28;1706;-67
2024/01/09 03:21:34;;;;;;;;;;;;;;;19.71;41.36;103280.81;2062716;28;2103;-67
2024/01/09 03:22:36;;;;;;;;;;;;;;;19.72;41.44;103280.22;2062499;28;1873;-68
2024/01/09 03:23:37;;;;;;;;;;;;;;;19.74;41.24;103276.75;2064040;28;1731;-67
2024/01/09 03:24:39;;;;;;;;;;;;;;;19.73;41.34;103283.88;2058301;28;1786;-67
2024/01/09 03:25:40;;;;;;;;;;;;;;;19.73;41.39;103281.00;2062339;28;1618;-67
2024/01/09 03:26:41;;;;;;;;;;;;;;;19.72;41.15;103267.94;2056699;28;2050;-68
2024/01/09 03:27:43;;;;;;;;;;;;;;;19.72;41.45;103276.56;2051289;28;2045;-67
2024/01/09 03:28:45;;;;;;;;;;;;;;;19.72;41.55;103270.81;2062995;28;1615;-67
2024/01/09 03:29:46;;;;;;;;;;;;;;;19.72;41.23;103277.34;2062395;28;1730;-67
2024/01/09 03:30:47;;;;;;;;;;;;;;;19.73;41.28;103272.38;2055969;28;6128;-67
2024/01/09 03:31:49;;;;;;;;;;;;;;;19.72;41.32;103273.69;2065429;28;1579;-67
2024/01/09 03:32:51;;;;;;;;;;;;;;;19.73;41.41;103272.38;2064283;28;1710;-67
2024/01/09 03:33:52;;;;;;;;;;;;;;;19.73;41.45;103267.38;2062321;28;1568;-67
2024/01/09 03:34:54;;;;;;;;;;;;;;;19.73;41.36;103281.00;2058800;28;2090;-67
2024/01/09 03:35:55;;;;;;;;;;;;;;;19.73;41.52;103278.13;2060655;28;1608;-67
2024/01/09 03:36:57;;;;;;;;;;;;;;;19.74;41.34;103273.88;2061187;28;2069;-67
2024/01/09 03:37:58;;;;;;;;;;;;;;;19.73;41.38;103269.50;2061553;28;2142;-67
2024/01/09 03:38:59;;;;;;;;;;;;;;;19.74;41.45;103280.38;2061077;28;1952;-67
2024/01/09 03:40:01;;;;;;;;;;;;;;;19.73;41.49;103272.38;2060979;28;1642;-68
2024/01/09 03:41:02;;;;;;;;;;;;;;;19.74;41.35;103265.25;2060962;28;2040;-67
2024/01/09 03:42:04;;;;;;;;;;;;;;;19.74;41.49;103271.00;2059686;28;2047;-68
2024/01/09 03:43:06;;;;;;;;;;;;;;;19.74;41.39;103265.25;2062640;28;1556;-67
2024/01/09 03:44:07;;;;;;;;;;;;;;;19.74;41.35;103265.25;2058363;28;1885;-67
2024/01/09 03:45:09;;;;;;;;;;;;;;;19.74;41.36;103268.88;2052614;28;2142;-67
2024/01/09 03:46:10;;;;;;;;;;;;;;;19.74;41.59;103263.13;2053786;28;1871;-68
2024/01/09 03:47:12;;;;;;;;;;;;;;;19.75;41.27;103266.81;2062540;28;1583;-67
2024/01/09 03:48:13;;;;;;;;;;;;;;;19.75;41.42;103266.81;2059706;28;2036;-68
2024/01/09 03:49:15;;;;;;;;;;;;;;;19.75;41.31;103269.69;2061602;28;2152;-67
2024/01/09 03:50:16;;;;;;;;;;;;;;;19.75;41.28;103263.94;2058976;28;2087;-67
2024/01/09 03:51:18;;;;;;;;;;;;;;;19.74;41.60;103262.38;2061924;28;2033;-67
2024/01/09 03:52:19;;;;;;;;;;;;;;;19.74;41.54;103265.25;2063849;28;2062;-68
2024/01/09 03:53:21;;;;;;;;;;;;;;;19.73;41.25;103261.63;2062540;28;1912;-67
2024/01/09 03:54:22;;;;;;;;;;;;;;;19.73;41.10;103266.63;2058496;28;1647;-68
2024/01/09 03:55:25;;;;;;;;;;;;;;;19.75;41.31;103263.94;2061247;28;2103;-68
2024/01/09 03:56:26;;;;;;;;;;;;;;;19.76;41.41;103265.44;2056555;28;1932;-67
2024/01/09 03:57:28;;;;;;;;;;;;;;;19.75;41.32;103266.81;2062319;28;1616;-67
2024/01/09 03:58:29;;;;;;;;;;;;;;;19.74;41.14;103266.00;2061261;28;1679;-67
2024/01/09 03:59:30;;;;;;;;;;;;;;;19.73;41.36;103264.50;2061570;28;2080;-67
2024/01/09 04:00:32;;;;;;;;;;;;;;;19.73;41.31;103255.88;2059590;28;6108;-67
2024/01/09 04:01:33;;;;;;;;;;;;;;;19.73;41.36;103266.63;2059207;28;1939;-67
2024/01/09 04:02:35;;;;;;;;;;;;;;;19.72;41.37;103270.81;2063212;28;2200;-68
2024/01/09 04:03:36;;;;;;;;;;;;;;;19.73;41.44;103272.38;2060273;28;2085;-68
2024/01/09 04:04:38;;;;;;;;;;;;;;;19.72;41.33;103265.84;2062162;28;1929;-67
2024/01/09 04:05:39;;;;;;;;;;;;;;;19.71;41.25;103257.81;2058177;28;2149;-67
2024/01/09 04:06:43;;;;;;;;;;;;;;;19.71;41.49;103263.56;2056081;28;2049;-67
2024/01/09 04:07:44;;;;;;;;;;;;;;;19.72;41.27;103259.31;2057969;28;2362;-68
2024/01/09 04:08:46;;;;;;;;;;;;;;;19.69;41.56;103261.25;2061298;28;1634;-67
2024/01/09 04:09:47;;;;;;;;;;;;;;;19.70;41.42;103259.16;2061212;28;2093;-67
2024/01/09 04:10:49;;;;;;;;;;;;;;;19.67;41.56;103253.19;2066818;28;1647;-67
2024/01/09 04:11:50;;;;;;;;;;;;;;;19.71;41.41;103254.94;2062814;28;1640;-67
2024/01/09 04:12:52;;;;;;;;;;;;;;;19.70;41.47;103257.06;2058592;28;2074;-67
2024/01/09 04:13:54;;;;;;;;;;;;;;;19.71;41.20;103252.06;2062031;28;1893;-67
2024/01/09 04:14:55;;;;;;;;;;;;;;;19.72;41.26;103262.19;2059854;28;2094;-67
2024/01/09 04:15:57;;;;;;;;;;;;;;;19.70;41.45;103256.28;2059008;28;1909;-67
2024/01/09 04:16:58;;;;;;;;;;;;;;;19.70;41.35;103259.94;2058366;28;1932;-67
2024/01/09 04:17:59;;;;;;;;;;;;;;;19.70;41.13;103256.28;2058387;28;2084;-67
2024/01/09 04:19:01;;;;;;;;;;;;;;;19.70;41.25;103262.03;2064276;28;1682;-68
2024/01/09 04:20:04;;;;;;;;;;;;;;;19.68;41.16;103248.22;2060795;28;2216;-67
2024/01/09 04:21:05;;;;;;;;;;;;;;;19.67;41.44;103263.94;2059802;28;2183;-67
2024/01/09 04:22:07;;;;;;;;;;;;;;;19.66;41.42;103251.69;2060627;28;2049;-67
2024/01/09 04:23:09;;;;;;;;;;;;;;;19.65;41.32;103258.00;2060889;28;1676;-67
2024/01/09 04:24:10;;;;;;;;;;;;;;;19.65;41.40;103261.66;2051509;28;1862;-67
2024/01/09 04:25:13;;;;;;;;;;;;;;;19.65;41.43;103261.66;2054263;28;2122;-67
2024/01/09 04:26:14;;;;;;;;;;;;;;;19.63;41.49;103270.09;2057744;28;2050;-67
2024/01/09 04:27:15;;;;;;;;;;;;;;;19.63;41.39;103270.09;2060163;28;2176;-67
2024/01/09 04:28:17;;;;;;;;;;;;;;;19.62;41.35;103268.56;2063289;28;1975;-67
2024/01/09 04:29:18;;;;;;;;;;;;;;;19.61;41.44;103264.19;2061261;28;2160;-67
2024/01/09 04:30:20;;;;;;;;;;;;;;;19.60;41.41;103270.50;2059301;28;6154;-68
2024/01/09 04:31:24;;;;;;;;;;;;;;;19.57;41.15;103278.19;2056270;28;2206;-69
2024/01/09 04:32:26;;;;;;;;;;;;;;;19.61;41.35;103272.78;2060022;28;1869;-67
2024/01/09 04:33:28;;;;;;;;;;;;;;;19.61;41.25;103272.78;2058120;28;2104;-67
2024/01/09 04:34:29;;;;;;;;;;;;;;;19.41;40.38;103271.75;2058245;28;1904;-67
2024/01/09 04:35:31;;;;;;;;;;;;;;;19.12;40.79;103273.44;2057713;28;1904;-67
2024/01/09 04:36:32;;;;;;;;;;;;;;;19.14;40.97;103279.38;2059093;28;2005;-67
2024/01/09 04:37:33;;;;;;;;;;;;;;;19.17;40.30;103279.00;2060120;28;1750;-67
2024/01/09 04:38:36;;;;;;;;;;;;;;;19.23;40.15;103279.50;2064757;28;1680;-67
2024/01/09 04:39:37;;;;;;;;;;;;;;;19.28;40.01;103285.63;2058415;28;1906;-67
2024/01/09 04:40:39;;;;;;;;;;;;;;;19.30;39.95;103275.06;2061611;28;2102;-67
2024/01/09 04:41:40;;;;;;;;;;;;;;;19.32;39.53;103271.63;2061094;28;2082;-67
2024/01/09 04:42:42;;;;;;;;;;;;;;;19.34;39.26;103266.06;2060371;28;1873;-67
2024/01/09 04:43:44;;;;;;;;;;;;;;;19.34;39.19;103272.56;2057130;28;1928;-67
2024/01/09 04:44:45;;;;;;;;;;;;;;;19.35;39.12;103268.34;2062015;28;1698;-67
2024/01/09 04:45:47;;;;;;;;;;;;;;;19.36;39.31;103272.00;2059920;28;1645;-67
2024/01/09 04:46:49;;;;;;;;;;;;;;;19.36;39.40;103275.63;2061258;28;1668;-67
2024/01/09 04:47:51;;;;;;;;;;;;;;;19.37;39.50;103273.50;2062951;28;1636;-67
2024/01/09 04:48:53;;;;;;;;;;;;;;;19.36;39.62;103269.13;2060401;28;1949;-67
2024/01/09 04:49:54;;;;;;;;;;;;;;;19.36;39.67;103267.00;2061189;28;2208;-67
2024/01/09 04:50:56;;;;;;;;;;;;;;;19.35;39.76;103261.84;2062199;28;1595;-67
2024/01/09 04:51:57;;;;;;;;;;;;;;;19.35;39.83;103267.59;2056826;28;2154;-67
2024/01/09 04:52:59;;;;;;;;;;;;;;;19.35;39.85;103267.59;2063044;28;1658;-67
2024/01/09 04:54:00;;;;;;;;;;;;;;;19.35;39.90;103264.72;2062525;28;1730;-67
2024/01/09 04:55:02;;;;;;;;;;;;;;;19.34;40.03;103266.06;2058443;28;1655;-67
2024/01/09 04:56:03;;;;;;;;;;;;;;;19.35;39.91;103267.59;2059451;28;1743;-67
2024/01/09 04:57:05;;;;;;;;;;;;;;;19.33;40.13;103259.53;2055047;28;1643;-67
2024/01/09 04:58:06;;;;;;;;;;;;;;;19.34;40.23;103260.31;2053366;28;1918;-67
2024/01/09 04:59:08;;;;;;;;;;;;;;;19.33;40.25;103265.28;2057175;28;2139;-67
2024/01/09 05:00:09;;;;;;;;;;;;;;;19.33;40.36;103261.66;2058999;28;6365;-67
2024/01/09 05:01:11;;;;;;;;;;;;;;;19.32;40.28;103263.00;2060392;28;2062;-67
2024/01/09 05:02:12;;;;;;;;;;;;;;;19.31;40.39;103261.47;2061627;28;2109;-67
2024/01/09 05:03:14;;;;;;;;;;;;;;;19.31;40.33;103261.47;2060107;28;1694;-67
2024/01/09 05:04:15;;;;;;;;;;;;;;;19.30;40.41;103262.81;2063383;28;1702;-67
2024/01/09 05:05:17;;;;;;;;;;;;;;;19.30;40.40;103259.94;2061934;28;1703;-67
2024/01/09 05:06:18;;;;;;;;;;;;;;;19.29;40.34;103261.28;2057836;28;1666;-67
2024/01/09 05:07:20;;;;;;;;;;;;;;;19.29;40.41;103264.16;2059778;28;1926;-67
2024/01/09 05:08:22;;;;;;;;;;;;;;;19.29;40.34;103258.41;2060986;28;1969;-67
2024/01/09 05:09:23;;;;;;;;;;;;;;;19.29;40.36;103258.41;2061229;28;1583;-67
2024/01/09 05:10:25;;;;;;;;;;;;;;;19.28;40.34;103260.53;2063221;28;1653;-67
2024/01/09 05:11:26;;;;;;;;;;;;;;;19.30;40.32;103260.72;2061001;28;2111;-67
2024/01/09 05:12:28;;;;;;;;;;;;;;;19.31;40.16;103261.47;2061840;28;1687;-67
2024/01/09 05:13:31;;;;;;;;;;;;;;;19.32;40.16;103260.13;2061329;28;1742;-67
2024/01/09 05:14:32;;;;;;;;;;;;;;;19.33;40.13;103259.53;2059067;28;2090;-67
2024/01/09 05:15:33;;;;;;;;;;;;;;;19.35;40.22;103264.72;2060314;28;1687;-66
2024/01/09 05:16:35;;;;;;;;;;;;;;;19.36;40.45;103272.00;2060073;28;1874;-68
2024/01/09 05:17:37;;;;;;;;;;;;;;;19.36;40.86;103269.13;2059500;28;1750;-67
2024/01/09 05:18:40;;;;;;;;;;;;;;;19.39;40.56;103273.69;2059937;28;1830;-67
2024/01/09 05:19:42;;;;;;;;;;;;;;;19.41;40.50;103273.88;2060691;28;1623;-67
2024/01/09 05:20:43;;;;;;;;;;;;;;;19.42;40.64;103278.25;2060142;28;2083;-67
2024/01/09 05:21:45;;;;;;;;;;;;;;;19.43;40.89;103276.94;2051470;28;2033;-67